Tropical Cyclones
[Index]
Main Index Home Page Stock Weather Photos Extreme Storms Discussion Storm News and Storm Chasing Reports Tropical Cyclones / Hurricanes / Typhoons Weather Data and Links Wild Fires / Bushfires Weather Observation Techniques Weather Picture Catalogue Tornado Pictures and Reports Stock Video Footage and DVDs for sale
Season 2001-2002 Tropical Cyclone DIANNE Track Map
Season 2001-2002 Summaries: [BoM-AU] [JTWC-AU] [JTWC-SIO] [JTWC-SPAC] [JTWC-SH]
<<- Previous TC | BoM 2001-2002 Season | Next TC ->>

click for intensity scale information  Lat/long Grid: Show Hide

 Date Labels: Show Hide

Bureau of Meteorology Tropical Cyclone Data

Name: DIANNE
Number: 857 / 200102_07

06 Apr 2002 00:00 UTC to 11 Apr 2002 18:00 UTC

    date/time    lat    long    hPa   cat  kts
2002-04-06 00   10.4   101.5   1004         20          
2002-04-06 06   11.0   101.0   1002         25          
2002-04-06 12   11.8   100.4   1000         25          
2002-04-06 18   12.1    99.2    997         30          
2002-04-06 21   12.2    98.5    995    1    35          
2002-04-07 00   12.2    98.0    992    1    40          
2002-04-07 03   12.3    97.3    988    1    45          
2002-04-07 06   12.5    96.8    986    1    45          
2002-04-07 09   12.7    96.4    984    2    50          
2002-04-07 12   13.3    96.0    980    2    55          
2002-04-07 15   13.8    95.1    975    2    60          
2002-04-07 18   14.0    94.3    975    2    60          
2002-04-07 21   14.3    93.6    975    2    60          
2002-04-08 00   14.5    93.0    970    3    65          
2002-04-08 03   14.7    92.3    970    3    65          
2002-04-08 06   15.0    91.8    970    3    65          
2002-04-08 09   15.3    91.1    965    3    70          
2002-04-08 12   15.5    90.6    960    3    80          
2002-04-08 15   15.6    90.2    955    4    80          
2002-04-08 18   15.8    89.9    950    4    90          
2002-04-08 21   16.2    89.6    945    4    90          
2002-04-09 00   16.6    89.3    945    4    90          
2002-04-09 03   17.0    89.1    945    4    90          
2002-04-09 06   17.3    88.5    945    4    90          
2002-04-09 09   17.6    88.3    950    4    85          
2002-04-09 12   17.7    88.1    950    4    85          
2002-04-09 15   18.0    88.0    950    4    85          
2002-04-09 18   18.3    87.9    950    4    85          
2002-04-09 21   18.5    87.9    950    4    85          
2002-04-10 00   18.9    87.9    955    4    80          
2002-04-10 03   19.2    88.0    955    4    80          
2002-04-10 06   19.7    88.0    960    3    75          
2002-04-10 09   19.8    88.2    965    3    70          
2002-04-10 12   20.0    88.3    970    3    65          
2002-04-10 18   20.5    88.5    980    2    55          
2002-04-11 00   21.0    88.7    985    2    50          
2002-04-11 06   22.2    89.1    990    1    40          
2002-04-11 12   23.2    89.4    995    1    35          
2002-04-11 15   23.7    89.6    997         30          
2002-04-11 18   24.0    89.7   1000         25          
Winds are 10-min average.

Tropical cyclone tracks developed by Michael Bath using data from the Bureau of Meteorology and Google Maps.


[Australian Severe Weather index] [Copyright Notice] [Email Contacts] [Search This Site] [Privacy Policy]
Document: tropical_cyclone_dianne.htm Updated: 29 June 2017